createdAt,value
2019-01-15T00:00:15.758Z,2.02
2019-01-15T00:01:15.787Z,1.99
2019-01-15T00:02:16.051Z,1.96
2019-01-15T00:03:16.309Z,1.99
2019-01-15T00:04:15.575Z,1.96
2019-01-15T00:05:15.849Z,2.00
2019-01-15T00:06:16.114Z,2.00
2019-01-15T00:07:16.382Z,2.00
2019-01-15T00:08:15.648Z,2.12
2019-01-15T00:09:15.914Z,2.06
2019-01-15T00:10:16.198Z,2.08
2019-01-15T00:11:16.227Z,2.08
2019-01-15T00:12:16.494Z,2.05
2019-01-15T00:13:15.754Z,2.07
2019-01-15T00:14:16.010Z,2.00
2019-01-15T00:15:16.281Z,2.05
2019-01-15T00:16:16.561Z,2.09
2019-01-15T00:17:15.823Z,2.09
2019-01-15T00:18:16.088Z,2.05
2019-01-15T00:19:16.345Z,2.06
2019-01-15T00:20:15.644Z,2.03
2019-01-15T00:21:15.653Z,2.07
2019-01-15T00:22:15.914Z,2.06
2019-01-15T00:23:16.178Z,2.02
2019-01-15T00:24:16.452Z,2.04
2019-01-15T00:25:15.720Z,2.07
2019-01-15T00:26:15.990Z,2.10
2019-01-15T00:27:16.251Z,2.10
2019-01-15T00:28:16.519Z,2.14
2019-01-15T00:29:15.785Z,2.07
2019-01-15T00:30:16.066Z,2.07
2019-01-15T00:31:16.142Z,2.09
2019-01-15T00:32:16.414Z,2.06
2019-01-15T00:33:15.677Z,2.02
2019-01-15T00:34:15.946Z,2.02
2019-01-15T00:35:16.215Z,2.07
2019-01-15T00:36:16.487Z,2.05
2019-01-15T00:37:15.765Z,2.06
2019-01-15T00:38:16.027Z,2.06
2019-01-15T00:39:16.291Z,2.06
2019-01-15T00:40:15.565Z,2.06
2019-01-15T00:41:15.638Z,2.04
2019-01-15T00:42:15.904Z,2.03
2019-01-15T00:43:16.183Z,2.03
2019-01-15T00:44:16.455Z,2.05
2019-01-15T00:45:15.719Z,2.05
2019-01-15T00:46:15.974Z,2.06
2019-01-15T00:47:16.247Z,2.02
2019-01-15T00:48:16.508Z,2.02
2019-01-15T00:49:15.787Z,2.03
2019-01-15T00:50:16.060Z,2.02
2019-01-15T00:51:16.106Z,2.03
2019-01-15T00:52:16.370Z,2.03
2019-01-15T00:53:15.645Z,2.02
2019-01-15T00:54:15.910Z,2.00
2019-01-15T00:55:16.175Z,2.02
2019-01-15T00:56:16.454Z,2.03
2019-01-15T00:57:15.912Z,1.99
2019-01-15T00:58:16.169Z,2.02
2019-01-15T00:59:16.437Z,1.95
2019-01-15T01:00:15.698Z,2.00
2019-01-15T01:01:15.762Z,2.00
2019-01-15T01:02:16.028Z,1.98
2019-01-15T01:03:16.303Z,1.98
2019-01-15T01:04:15.560Z,2.03
2019-01-15T01:05:15.825Z,1.95
2019-01-15T01:06:16.091Z,1.89
2019-01-15T01:07:16.352Z,1.95
2019-01-15T01:08:15.613Z,1.98
2019-01-15T01:09:15.896Z,1.96
2019-01-15T01:10:16.180Z,1.98
2019-01-15T01:11:16.223Z,1.95
2019-01-15T01:12:22.116Z,1.95
2019-01-15T01:13:15.688Z,1.95
2019-01-15T01:14:15.954Z,1.92
2019-01-15T01:15:16.236Z,1.93
2019-01-15T01:16:16.510Z,1.96
2019-01-15T01:17:15.794Z,1.93
2019-01-15T01:18:16.047Z,1.92
2019-01-15T01:19:16.310Z,1.95
2019-01-15T01:20:15.599Z,1.92
2019-01-15T01:21:15.640Z,1.88
2019-01-15T01:22:15.923Z,1.92
2019-01-15T01:23:16.190Z,1.90
2019-01-15T01:24:16.452Z,1.93
2019-01-15T01:25:15.735Z,1.90
2019-01-15T01:26:16.000Z,1.85
2019-01-15T01:27:16.265Z,1.88
2019-01-15T01:28:16.529Z,1.82
2019-01-15T01:29:15.792Z,1.83
2019-01-15T01:30:16.066Z,1.86
2019-01-15T01:31:16.123Z,1.89
2019-01-15T01:32:16.390Z,1.85
2019-01-15T01:33:15.661Z,1.89
2019-01-15T01:34:15.914Z,1.89
2019-01-15T01:35:16.182Z,1.89
2019-01-15T01:36:16.441Z,1.95
2019-01-15T01:37:15.702Z,1.85
2019-01-15T01:38:16.280Z,1.90
2019-01-15T01:39:16.552Z,1.90
2019-01-15T01:40:15.823Z,1.89
2019-01-15T01:41:15.882Z,1.89
2019-01-15T01:42:16.149Z,1.92
2019-01-15T01:43:16.746Z,1.92
2019-01-15T01:44:16.010Z,1.92
2019-01-15T01:45:16.283Z,1.88
2019-01-15T01:46:16.542Z,1.90
2019-01-15T01:47:15.806Z,1.85
2019-01-15T01:48:16.102Z,1.86
2019-01-15T01:49:16.370Z,1.86
2019-01-15T01:50:15.641Z,1.86
2019-01-15T01:51:15.687Z,1.88
2019-01-15T01:52:15.948Z,1.86
2019-01-15T01:53:16.215Z,1.90
2019-01-15T01:54:16.481Z,1.86
2019-01-15T01:55:15.760Z,1.88
2019-01-15T01:56:16.031Z,1.86
2019-01-15T01:57:16.295Z,1.92
2019-01-15T01:58:15.567Z,1.90
2019-01-15T01:59:16.093Z,1.89
2019-01-15T02:00:16.368Z,1.88
2019-01-15T02:01:16.405Z,1.85
2019-01-15T02:02:15.668Z,1.91
2019-01-15T02:03:15.908Z,1.90
2019-01-15T02:04:16.173Z,1.85
2019-01-15T02:05:16.437Z,1.83
2019-01-15T02:06:15.709Z,1.88
2019-01-15T02:07:15.969Z,1.90
2019-01-15T02:08:16.249Z,1.92
2019-01-15T02:09:16.523Z,1.90
2019-01-15T02:10:15.802Z,1.86
2019-01-15T02:11:15.833Z,1.90
2019-01-15T02:12:16.099Z,1.93
2019-01-15T02:13:16.367Z,1.95
2019-01-15T02:14:15.630Z,1.96
2019-01-15T02:15:15.891Z,1.95
2019-01-15T02:16:16.152Z,1.96
2019-01-15T02:17:16.422Z,1.90
2019-01-15T02:18:15.682Z,1.89
2019-01-15T02:19:15.951Z,1.90
2019-01-15T02:20:16.230Z,1.94
2019-01-15T02:21:16.272Z,1.92
2019-01-15T02:22:16.549Z,1.94
2019-01-15T02:23:15.795Z,1.95
2019-01-15T02:24:16.092Z,1.93
2019-01-15T02:25:16.353Z,1.93
2019-01-15T02:26:15.628Z,1.92
2019-01-15T02:27:15.887Z,1.85
2019-01-15T02:28:16.164Z,1.86
2019-01-15T02:29:16.433Z,1.88
2019-01-15T02:30:15.706Z,1.92
2019-01-15T02:31:15.765Z,1.96
2019-01-15T02:32:16.032Z,1.90
2019-01-15T02:33:16.297Z,1.92
2019-01-15T02:34:15.548Z,1.95
2019-01-15T02:35:15.819Z,1.96
2019-01-15T02:36:16.078Z,1.90
2019-01-15T02:37:16.349Z,1.88
2019-01-15T02:38:15.611Z,1.92
2019-01-15T02:39:15.873Z,1.93
2019-01-15T02:40:16.152Z,1.94
2019-01-15T02:41:16.192Z,1.94
2019-01-15T02:42:16.466Z,1.95
2019-01-15T02:43:15.713Z,1.83
2019-01-15T02:44:15.983Z,1.93
2019-01-15T02:45:16.258Z,1.96
2019-01-15T02:46:16.531Z,1.88
2019-01-15T02:47:15.793Z,1.88
2019-01-15T02:48:16.054Z,1.78
2019-01-15T02:49:16.331Z,1.90
2019-01-15T02:50:15.603Z,1.89
2019-01-15T02:51:15.650Z,1.86
2019-01-15T02:52:15.915Z,1.85
2019-01-15T02:53:16.180Z,1.86
2019-01-15T02:54:16.448Z,1.83
2019-01-15T02:55:15.730Z,1.85
2019-01-15T02:56:15.997Z,1.86
2019-01-15T02:57:16.269Z,1.88
2019-01-15T02:58:16.536Z,1.88
2019-01-15T02:59:15.828Z,1.89
2019-01-15T03:00:16.094Z,1.91
2019-01-15T03:01:16.142Z,1.83
2019-01-15T03:02:16.414Z,1.83
2019-01-15T03:03:15.692Z,1.85
2019-01-15T03:04:15.960Z,1.86
2019-01-15T03:05:16.233Z,1.88
2019-01-15T03:06:16.515Z,1.87
2019-01-15T03:07:15.777Z,1.85
2019-01-15T03:08:16.019Z,1.85
2019-01-15T03:09:16.295Z,1.81
2019-01-15T03:10:15.565Z,1.84
2019-01-15T03:11:15.893Z,1.81
2019-01-15T03:12:16.160Z,1.80
2019-01-15T03:13:16.428Z,1.81
2019-01-15T03:14:15.692Z,1.81
2019-01-15T03:15:15.960Z,1.72
2019-01-15T03:16:16.241Z,1.67
2019-01-15T03:17:16.500Z,1.69
2019-01-15T03:18:15.759Z,1.74
2019-01-15T03:19:16.034Z,1.72
2019-01-15T03:20:16.325Z,1.69
2019-01-15T03:21:16.370Z,1.69
2019-01-15T03:22:15.649Z,1.67
2019-01-15T03:23:15.915Z,1.69
2019-01-15T03:24:16.180Z,1.68
2019-01-15T03:25:16.444Z,1.72
2019-01-15T03:26:15.708Z,1.65
2019-01-15T03:27:15.971Z,1.67
2019-01-15T03:28:16.227Z,1.64
2019-01-15T03:29:16.487Z,1.66
2019-01-15T03:30:15.752Z,1.72
2019-01-15T03:31:15.805Z,1.70
2019-01-15T03:32:16.078Z,1.70
2019-01-15T03:33:16.509Z,1.67
2019-01-15T03:34:15.782Z,1.66
2019-01-15T03:35:16.061Z,1.63
2019-01-15T03:36:16.353Z,1.67
2019-01-15T03:37:15.767Z,1.68
2019-01-15T03:38:16.048Z,1.69
2019-01-15T03:39:16.311Z,1.70
2019-01-15T03:40:15.570Z,1.71
2019-01-15T03:41:15.627Z,1.67
2019-01-15T03:42:16.163Z,1.69
2019-01-15T03:43:16.425Z,1.73
2019-01-15T03:44:15.683Z,1.71
2019-01-15T03:45:15.965Z,1.71
2019-01-15T03:46:16.228Z,1.75
2019-01-15T03:47:16.484Z,1.80
2019-01-15T03:48:15.743Z,1.78
2019-01-15T03:49:16.007Z,1.74
2019-01-15T03:50:16.289Z,1.74
2019-01-15T03:51:16.332Z,1.73
2019-01-15T03:52:15.619Z,1.73
2019-01-15T03:53:15.883Z,1.75
2019-01-15T03:54:16.161Z,1.74
2019-01-15T03:55:16.420Z,1.70
2019-01-15T03:56:15.688Z,1.73
2019-01-15T03:57:15.949Z,1.73
2019-01-15T03:58:16.208Z,1.75
2019-01-15T03:59:16.480Z,1.80
2019-01-15T04:00:15.760Z,1.78
2019-01-15T04:01:15.783Z,1.77
2019-01-15T04:02:16.046Z,1.74
2019-01-15T04:03:16.307Z,1.73
2019-01-15T04:04:15.599Z,1.74
2019-01-15T04:05:15.863Z,1.73
2019-01-15T04:06:16.185Z,1.73
2019-01-15T04:07:16.452Z,1.73
2019-01-15T04:08:15.724Z,1.74
2019-01-15T04:09:15.992Z,1.74
2019-01-15T04:10:16.276Z,1.75
2019-01-15T04:11:16.306Z,1.77
2019-01-15T04:12:15.573Z,1.75
2019-01-15T04:13:15.845Z,1.75
2019-01-15T04:14:16.114Z,1.74
2019-01-15T04:15:16.384Z,1.70
2019-01-15T04:16:15.660Z,1.72
2019-01-15T04:17:15.934Z,1.77
2019-01-15T04:18:16.207Z,1.71
2019-01-15T04:19:16.480Z,1.78
2019-01-15T04:20:15.746Z,1.78
2019-01-15T04:21:15.797Z,1.78
2019-01-15T04:22:16.067Z,1.74
2019-01-15T04:23:16.311Z,1.73
2019-01-15T04:24:15.574Z,1.77
2019-01-15T04:25:15.848Z,1.78
2019-01-15T04:26:16.116Z,1.81
2019-01-15T04:27:16.376Z,1.75
2019-01-15T04:28:15.639Z,1.75
2019-01-15T04:29:15.911Z,1.80
2019-01-15T04:30:16.178Z,1.74
2019-01-15T04:31:16.258Z,1.77
2019-01-15T04:32:16.522Z,1.77
2019-01-15T04:33:15.772Z,1.78
2019-01-15T04:34:16.028Z,1.81
2019-01-15T04:35:16.292Z,1.82
2019-01-15T04:36:15.553Z,1.80
2019-01-15T04:37:15.822Z,1.78
2019-01-15T04:38:16.091Z,1.74
2019-01-15T04:39:16.368Z,1.74
2019-01-15T04:40:15.648Z,1.74
2019-01-15T04:41:15.696Z,1.74
2019-01-15T04:42:15.967Z,1.78
2019-01-15T04:43:19.743Z,1.75
2019-01-15T04:44:16.438Z,1.78
2019-01-15T04:45:15.708Z,1.75
2019-01-15T04:46:15.974Z,1.77
2019-01-15T04:47:16.245Z,1.77
2019-01-15T04:48:16.507Z,1.78
2019-01-15T04:49:15.786Z,1.78
2019-01-15T04:50:16.061Z,1.77
2019-01-15T04:51:16.105Z,1.67
2019-01-15T04:52:16.374Z,1.75
2019-01-15T04:53:15.635Z,1.74
2019-01-15T04:54:16.226Z,1.72
2019-01-15T04:55:16.498Z,1.72
2019-01-15T04:56:15.764Z,1.77
2019-01-15T04:57:16.023Z,1.75
2019-01-15T04:58:16.282Z,1.71
2019-01-15T04:59:15.569Z,1.75
2019-01-15T05:00:15.837Z,1.72
2019-01-15T05:01:15.886Z,1.72
2019-01-15T05:02:16.156Z,1.72
2019-01-15T05:03:16.410Z,1.71
2019-01-15T05:04:15.678Z,1.72
2019-01-15T05:05:15.945Z,1.68
2019-01-15T05:06:16.214Z,1.67
2019-01-15T05:07:16.491Z,1.71
2019-01-15T05:08:15.748Z,1.74
2019-01-15T05:09:16.003Z,1.73
2019-01-15T05:10:16.288Z,1.78
2019-01-15T05:11:16.317Z,1.68
2019-01-15T05:12:15.594Z,1.64
2019-01-15T05:13:15.862Z,1.72
2019-01-15T05:14:16.426Z,1.78
2019-01-15T05:15:15.699Z,1.77
2019-01-15T05:16:15.981Z,1.75
2019-01-15T05:17:16.259Z,1.75
2019-01-15T05:18:16.519Z,1.67
2019-01-15T05:19:15.781Z,1.74
2019-01-15T05:20:16.050Z,1.75
2019-01-15T05:21:16.090Z,1.78
2019-01-15T05:22:16.357Z,1.75
2019-01-15T05:23:15.623Z,1.74
2019-01-15T05:24:15.906Z,1.75
2019-01-15T05:25:16.174Z,1.78
2019-01-15T05:26:16.446Z,1.79
2019-01-15T05:27:15.708Z,1.78
2019-01-15T05:28:15.977Z,1.74
2019-01-15T05:29:16.229Z,1.77
2019-01-15T05:30:16.486Z,1.79
2019-01-15T05:31:15.555Z,1.81
2019-01-15T05:32:15.839Z,1.79
2019-01-15T05:33:15.736Z,1.74
2019-01-15T05:34:16.011Z,1.78
2019-01-15T05:35:16.286Z,1.75
2019-01-15T05:36:15.559Z,1.77
2019-01-15T05:37:15.837Z,1.81
2019-01-15T05:38:16.101Z,1.77
2019-01-15T05:39:16.370Z,1.79
2019-01-15T05:40:15.643Z,1.82
2019-01-15T05:41:15.692Z,1.81
2019-01-15T05:42:15.949Z,1.78
2019-01-15T05:43:16.210Z,1.72
2019-01-15T05:44:16.506Z,1.79
2019-01-15T05:45:15.771Z,1.78
2019-01-15T05:46:16.040Z,1.81
2019-01-15T05:47:16.315Z,1.77
2019-01-15T05:48:15.576Z,1.78
2019-01-15T05:49:15.839Z,1.81
2019-01-15T05:50:16.126Z,1.82
2019-01-15T05:51:16.163Z,1.85
2019-01-15T05:52:16.426Z,1.79
2019-01-15T05:53:15.693Z,1.85
2019-01-15T05:54:15.963Z,1.79
2019-01-15T05:55:16.249Z,1.75
2019-01-15T05:56:16.530Z,1.75
2019-01-15T05:57:15.807Z,1.74
2019-01-15T05:58:16.070Z,1.74
2019-01-15T05:59:16.341Z,1.83
2019-01-15T06:00:15.629Z,1.78
2019-01-15T06:01:15.680Z,1.75
2019-01-15T06:02:15.951Z,1.79
2019-01-15T06:03:16.209Z,1.75
2019-01-15T06:04:16.469Z,1.75
2019-01-15T06:05:15.736Z,1.78
2019-01-15T06:06:15.991Z,1.75
2019-01-15T06:07:16.261Z,1.81
2019-01-15T06:08:16.528Z,1.79
2019-01-15T06:09:15.794Z,1.81
2019-01-15T06:10:16.079Z,1.78
2019-01-15T06:11:16.116Z,1.78
2019-01-15T06:12:16.392Z,1.78
2019-01-15T06:13:15.654Z,1.75
2019-01-15T06:14:15.929Z,1.81
2019-01-15T06:15:16.194Z,1.78
2019-01-15T06:16:16.453Z,1.77
2019-01-15T06:17:15.713Z,1.83
2019-01-15T06:18:15.978Z,1.83
2019-01-15T06:19:16.304Z,1.83
2019-01-15T06:20:15.586Z,1.82
2019-01-15T06:21:15.641Z,1.86
2019-01-15T06:22:15.909Z,1.87
2019-01-15T06:23:16.177Z,1.82
2019-01-15T06:24:16.445Z,1.81
2019-01-15T06:25:15.714Z,1.81
2019-01-15T06:26:15.984Z,1.83
2019-01-15T06:27:16.251Z,1.85
2019-01-15T06:28:16.508Z,1.85
2019-01-15T06:29:15.770Z,1.83
2019-01-15T06:30:16.050Z,1.78
2019-01-15T06:31:16.073Z,1.72
2019-01-15T06:32:16.341Z,1.79
2019-01-15T06:33:15.611Z,1.79
2019-01-15T06:34:15.866Z,1.81
2019-01-15T06:35:16.156Z,1.86
2019-01-15T06:36:16.466Z,1.81
2019-01-15T06:37:15.906Z,1.79
2019-01-15T06:38:16.162Z,1.82
2019-01-15T06:39:16.424Z,1.77
2019-01-15T06:40:15.692Z,1.77
2019-01-15T06:41:15.774Z,1.74
2019-01-15T06:42:16.029Z,1.75
2019-01-15T06:43:16.303Z,1.83
2019-01-15T06:44:15.582Z,1.82
2019-01-15T06:45:15.851Z,1.86
2019-01-15T06:46:16.113Z,1.86
2019-01-15T06:47:16.373Z,1.90
2019-01-15T06:48:17.061Z,1.88
2019-01-15T06:49:16.412Z,1.88
2019-01-15T06:50:15.684Z,1.88
2019-01-15T06:51:15.718Z,1.85
2019-01-15T06:52:15.997Z,1.82
2019-01-15T06:53:16.260Z,1.82
2019-01-15T06:54:16.527Z,1.81
2019-01-15T06:55:15.798Z,1.81
2019-01-15T06:56:16.058Z,1.82
2019-01-15T06:57:16.325Z,1.78
2019-01-15T06:58:15.596Z,1.81
2019-01-15T06:59:15.858Z,1.77
2019-01-15T07:00:16.155Z,1.86
2019-01-15T07:01:16.192Z,1.83
2019-01-15T07:02:16.469Z,1.82
2019-01-15T07:03:16.001Z,1.78
2019-01-15T07:04:16.258Z,1.77
2019-01-15T07:05:16.549Z,1.72
2019-01-15T07:06:15.823Z,1.75
2019-01-15T07:07:16.089Z,1.77
2019-01-15T07:08:16.361Z,1.75
2019-01-15T07:09:15.614Z,1.79
2019-01-15T07:10:15.888Z,1.79
2019-01-15T07:11:15.927Z,1.78
2019-01-15T07:12:16.198Z,1.82
2019-01-15T07:13:16.460Z,1.75
2019-01-15T07:14:15.727Z,1.75
2019-01-15T07:15:15.996Z,1.75
2019-01-15T07:16:16.253Z,1.74
2019-01-15T07:17:16.528Z,1.71
2019-01-15T07:18:15.824Z,1.68
2019-01-15T07:19:16.095Z,1.71
2019-01-15T07:20:16.361Z,1.78
2019-01-15T07:21:16.405Z,1.79
2019-01-15T07:22:15.670Z,1.77
2019-01-15T07:23:15.946Z,1.81
2019-01-15T07:24:16.209Z,1.81
2019-01-15T07:25:16.505Z,1.78
2019-01-15T07:26:15.777Z,1.81
2019-01-15T07:27:16.048Z,1.78
2019-01-15T07:28:16.313Z,1.79
2019-01-15T07:29:15.593Z,1.81
2019-01-15T07:30:15.873Z,1.83
2019-01-15T07:31:15.930Z,1.83
2019-01-15T07:32:16.204Z,1.85
2019-01-15T07:33:16.494Z,1.85
2019-01-15T07:34:15.760Z,1.85
2019-01-15T07:35:16.039Z,1.88
2019-01-15T07:36:16.312Z,1.92
2019-01-15T07:37:15.575Z,1.90
2019-01-15T07:38:15.836Z,1.88
2019-01-15T07:39:15.731Z,1.92
2019-01-15T07:40:15.994Z,1.93
2019-01-15T07:41:16.291Z,1.96
2019-01-15T07:42:15.550Z,1.98
2019-01-15T07:43:15.816Z,2.02
2019-01-15T07:44:16.090Z,1.95
2019-01-15T07:45:16.355Z,1.99
2019-01-15T07:46:15.619Z,1.93
2019-01-15T07:47:15.873Z,1.92
2019-01-15T07:48:16.138Z,1.95
2019-01-15T07:49:16.403Z,1.96
2019-01-15T07:50:15.680Z,1.95
2019-01-15T07:51:15.718Z,1.98
2019-01-15T07:52:15.977Z,1.95
2019-01-15T07:53:16.247Z,1.93
2019-01-15T07:54:16.521Z,1.96
2019-01-15T07:55:15.803Z,1.95
2019-01-15T07:56:16.056Z,1.96
2019-01-15T07:57:16.315Z,1.96
2019-01-15T07:58:15.581Z,1.96
2019-01-15T07:59:15.847Z,1.96
2019-01-15T08:00:16.131Z,1.96
2019-01-15T08:01:16.170Z,1.98
2019-01-15T08:02:16.438Z,1.98
2019-01-15T08:03:15.705Z,1.98
2019-01-15T08:04:15.974Z,2.00
2019-01-15T08:05:16.232Z,2.03
2019-01-15T08:06:16.511Z,2.02
2019-01-15T08:07:15.770Z,1.98
2019-01-15T08:08:16.031Z,1.99
2019-01-15T08:09:16.300Z,2.00
2019-01-15T08:10:15.583Z,2.00
2019-01-15T08:11:15.615Z,2.00
2019-01-15T08:12:15.887Z,2.00
2019-01-15T08:13:16.161Z,2.07
2019-01-15T08:14:16.427Z,2.06
2019-01-15T08:15:15.695Z,2.06
2019-01-15T08:16:15.965Z,2.09
2019-01-15T08:17:16.237Z,2.06
2019-01-15T08:18:16.506Z,2.06
2019-01-15T08:19:15.816Z,2.07
2019-01-15T08:20:16.092Z,2.09
2019-01-15T08:21:16.135Z,2.09
2019-01-15T08:22:16.405Z,2.10
2019-01-15T08:23:15.668Z,2.10
2019-01-15T08:24:15.938Z,2.10
2019-01-15T08:25:16.210Z,2.13
2019-01-15T08:26:16.479Z,2.14
2019-01-15T08:27:15.742Z,2.14
2019-01-15T08:28:16.012Z,2.14
2019-01-15T08:29:16.290Z,2.14
2019-01-15T08:30:15.571Z,2.19
2019-01-15T08:31:15.619Z,2.20
2019-01-15T08:32:15.883Z,2.21
2019-01-15T08:33:16.142Z,2.23
2019-01-15T08:34:16.415Z,2.26
2019-01-15T08:35:15.688Z,2.27
2019-01-15T08:36:15.945Z,2.29
2019-01-15T08:37:16.210Z,2.27
2019-01-15T08:38:16.476Z,2.33
2019-01-15T08:39:15.745Z,2.33
2019-01-15T08:40:16.034Z,2.32
2019-01-15T08:41:16.079Z,2.32
2019-01-15T08:42:16.352Z,2.34
2019-01-15T08:43:15.619Z,2.36
2019-01-15T08:44:19.231Z,2.37
2019-01-15T08:45:15.712Z,2.43
2019-01-15T08:46:15.978Z,2.43
2019-01-15T08:47:16.255Z,2.47
2019-01-15T08:48:16.516Z,2.45
2019-01-15T08:49:15.786Z,2.48
2019-01-15T08:50:16.072Z,2.51
2019-01-15T08:51:16.114Z,2.54
2019-01-15T08:52:16.383Z,2.55
2019-01-15T08:53:15.654Z,2.63
2019-01-15T08:54:15.918Z,2.61
2019-01-15T08:55:16.184Z,2.63
2019-01-15T08:56:16.451Z,2.63
2019-01-15T08:57:15.713Z,2.63
2019-01-15T08:58:15.973Z,2.64
2019-01-15T08:59:16.235Z,2.69
2019-01-15T09:00:16.518Z,2.67
2019-01-15T09:01:15.574Z,2.69
2019-01-15T09:02:15.839Z,2.71
2019-01-15T09:03:16.101Z,2.71
2019-01-15T09:04:16.363Z,2.72
2019-01-15T09:05:15.631Z,2.74
2019-01-15T09:06:15.892Z,2.71
2019-01-15T09:07:16.168Z,2.75
2019-01-15T09:08:16.433Z,2.74
2019-01-15T09:09:15.743Z,2.76
2019-01-15T09:10:16.021Z,2.76
2019-01-15T09:11:16.068Z,2.85
2019-01-15T09:12:16.326Z,2.84
2019-01-15T09:13:15.593Z,2.84
2019-01-15T09:14:15.865Z,2.88
2019-01-15T09:15:16.135Z,2.86
2019-01-15T09:16:16.488Z,2.93
2019-01-15T09:17:15.760Z,2.92
2019-01-15T09:18:16.091Z,2.93
2019-01-15T09:19:16.362Z,2.91
2019-01-15T09:20:15.644Z,2.95
2019-01-15T09:21:15.677Z,2.88
2019-01-15T09:22:15.938Z,2.92
2019-01-15T09:23:16.200Z,2.89
2019-01-15T09:24:16.520Z,2.91
2019-01-15T09:25:15.790Z,2.96
2019-01-15T09:26:16.045Z,2.96
2019-01-15T09:27:16.340Z,2.96
2019-01-15T09:28:15.605Z,2.91
2019-01-15T09:29:15.871Z,2.93
2019-01-15T09:30:16.237Z,2.91
2019-01-15T09:31:16.275Z,2.88
2019-01-15T09:32:15.541Z,2.91
2019-01-15T09:33:15.799Z,2.92
2019-01-15T09:34:16.062Z,2.89
2019-01-15T09:35:16.337Z,2.89
2019-01-15T09:36:15.605Z,2.92
2019-01-15T09:37:15.871Z,2.99
2019-01-15T09:38:16.139Z,2.96
2019-01-15T09:39:16.398Z,3.00
2019-01-15T09:40:15.673Z,3.02
2019-01-15T09:41:15.706Z,3.04
2019-01-15T09:42:15.972Z,3.10
2019-01-15T09:43:16.230Z,3.06
2019-01-15T09:44:16.504Z,3.06
2019-01-15T09:45:15.780Z,3.04
2019-01-15T09:46:16.058Z,3.04
2019-01-15T09:47:17.161Z,3.07
2019-01-15T09:48:16.520Z,3.22
2019-01-15T09:49:15.855Z,3.19
2019-01-15T09:50:16.129Z,3.16
2019-01-15T09:51:16.169Z,3.17
2019-01-15T09:52:20.429Z,3.14
2019-01-15T09:53:16.058Z,3.22
2019-01-15T09:54:16.331Z,3.23
2019-01-15T09:55:15.596Z,3.23
2019-01-15T09:56:15.869Z,3.26
2019-01-15T09:57:16.132Z,3.23
2019-01-15T09:58:16.395Z,3.26
2019-01-15T09:59:15.667Z,3.30
2019-01-15T10:00:15.960Z,3.24
2019-01-15T10:01:15.999Z,3.26
2019-01-15T10:02:16.265Z,3.27
2019-01-15T10:03:16.532Z,3.26
2019-01-15T10:04:15.806Z,3.24
2019-01-15T10:05:16.068Z,3.28
2019-01-15T10:06:16.338Z,3.30
2019-01-15T10:07:15.606Z,3.27
2019-01-15T10:08:15.880Z,3.27
2019-01-15T10:09:16.159Z,3.30
2019-01-15T10:10:16.428Z,3.26
2019-01-15T10:11:16.474Z,3.28
2019-01-15T10:12:15.737Z,3.30
2019-01-15T10:13:15.999Z,3.34
2019-01-15T10:14:16.257Z,3.24
2019-01-15T10:15:16.517Z,3.31
2019-01-15T10:16:15.781Z,3.30
2019-01-15T10:17:16.048Z,3.27
2019-01-15T10:18:16.315Z,3.28
2019-01-15T10:19:15.581Z,3.28
2019-01-15T10:20:15.867Z,3.30
2019-01-15T10:21:15.896Z,3.34
2019-01-15T10:22:16.219Z,3.34
2019-01-15T10:23:16.503Z,3.26
2019-01-15T10:24:15.771Z,3.33
2019-01-15T10:25:16.137Z,3.31
2019-01-15T10:26:16.393Z,3.28
2019-01-15T10:27:15.654Z,3.33
2019-01-15T10:28:15.933Z,3.30
2019-01-15T10:29:16.209Z,3.36
2019-01-15T10:30:16.474Z,3.31
2019-01-15T10:31:16.507Z,3.34
2019-01-15T10:32:15.777Z,3.28
2019-01-15T10:33:16.042Z,3.27
2019-01-15T10:34:16.308Z,3.27
2019-01-15T10:35:15.622Z,3.26
2019-01-15T10:36:15.888Z,3.26
2019-01-15T10:37:16.146Z,3.24
2019-01-15T10:38:16.408Z,3.23
2019-01-15T10:39:15.690Z,3.22
2019-01-15T10:40:15.973Z,3.23
2019-01-15T10:41:16.031Z,3.20
2019-01-15T10:42:16.289Z,3.24
2019-01-15T10:43:15.546Z,3.23
2019-01-15T10:44:15.806Z,3.22
2019-01-15T10:45:16.085Z,3.22
2019-01-15T10:46:16.359Z,3.24
2019-01-15T10:47:15.674Z,3.28
2019-01-15T10:48:15.936Z,3.28
2019-01-15T10:49:16.201Z,3.23
2019-01-15T10:50:16.464Z,3.24
2019-01-15T10:51:16.539Z,3.22
2019-01-15T10:52:15.812Z,3.26
2019-01-15T10:53:16.065Z,3.26
2019-01-15T10:54:16.335Z,3.23
2019-01-15T10:55:15.613Z,3.24
2019-01-15T10:56:15.871Z,3.28
2019-01-15T10:57:16.133Z,3.27
2019-01-15T10:58:17.598Z,3.31
2019-01-15T10:59:16.186Z,3.36
2019-01-15T11:00:16.467Z,3.40
2019-01-15T11:01:16.540Z,3.41
2019-01-15T11:02:15.806Z,3.47
2019-01-15T11:03:16.067Z,3.47
2019-01-15T11:04:16.384Z,3.58
2019-01-15T11:05:15.651Z,3.54
2019-01-15T11:06:15.913Z,3.55
2019-01-15T11:07:16.185Z,3.50
2019-01-15T11:08:16.458Z,3.58
2019-01-15T11:09:15.719Z,3.67
2019-01-15T11:10:15.995Z,3.65
2019-01-15T11:11:16.056Z,3.61
2019-01-15T11:12:16.313Z,3.58
2019-01-15T11:13:15.583Z,3.57
2019-01-15T11:14:15.841Z,3.53
2019-01-15T11:15:16.099Z,3.58
2019-01-15T11:16:16.370Z,3.61
2019-01-15T11:17:15.652Z,3.61
2019-01-15T11:18:15.914Z,3.60
2019-01-15T11:19:16.182Z,3.65
2019-01-15T11:20:16.460Z,3.69
2019-01-15T11:21:16.498Z,3.74
2019-01-15T11:22:15.768Z,3.72
2019-01-15T11:23:16.043Z,3.75
2019-01-15T11:24:16.314Z,3.82
2019-01-15T11:25:15.588Z,3.89
2019-01-15T11:26:15.925Z,3.99
2019-01-15T11:27:16.194Z,3.99
2019-01-15T11:28:16.457Z,3.92
2019-01-15T11:29:15.721Z,3.88
2019-01-15T11:30:16.016Z,3.88
2019-01-15T11:31:16.040Z,3.88
2019-01-15T11:32:16.292Z,3.86
2019-01-15T11:33:15.568Z,3.86
2019-01-15T11:34:15.849Z,3.89
2019-01-15T11:35:16.121Z,3.75
2019-01-15T11:36:16.396Z,3.78
2019-01-15T11:37:15.668Z,3.78
2019-01-15T11:38:15.942Z,3.75
2019-01-15T11:39:16.211Z,3.93
2019-01-15T11:40:16.484Z,3.95
2019-01-15T11:41:16.540Z,4.02
2019-01-15T11:42:15.816Z,4.06
2019-01-15T11:43:16.089Z,4.17
2019-01-15T11:44:16.353Z,4.26
2019-01-15T11:45:15.613Z,4.20
2019-01-15T11:46:15.875Z,4.20
2019-01-15T11:47:16.162Z,4.33
2019-01-15T11:48:16.428Z,4.34
2019-01-15T11:49:15.694Z,4.31
2019-01-15T11:50:15.972Z,4.23
2019-01-15T11:51:16.007Z,4.17
2019-01-15T11:52:16.272Z,4.17
2019-01-15T11:53:16.534Z,4.13
2019-01-15T11:54:15.793Z,4.13
2019-01-15T11:55:16.051Z,4.16
2019-01-15T11:56:16.311Z,4.24
2019-01-15T11:57:15.578Z,4.28
2019-01-15T11:58:15.847Z,4.24
2019-01-15T11:59:16.104Z,4.21
2019-01-15T12:00:16.385Z,4.19
2019-01-15T12:01:16.434Z,4.26
2019-01-15T12:02:21.996Z,4.19
2019-01-15T12:03:15.756Z,4.20
2019-01-15T12:04:16.013Z,4.13
2019-01-15T12:05:16.278Z,4.19
2019-01-15T12:06:15.544Z,4.16
2019-01-15T12:07:15.811Z,4.19
2019-01-15T12:08:17.731Z,4.14
2019-01-15T12:09:16.189Z,4.23
2019-01-15T12:10:16.457Z,4.21
2019-01-15T12:11:16.521Z,4.27
2019-01-15T12:12:15.781Z,4.23
2019-01-15T12:13:16.050Z,4.27
2019-01-15T12:14:16.326Z,4.27
2019-01-15T12:15:15.600Z,4.30
2019-01-15T12:16:15.871Z,4.30
2019-01-15T12:17:16.395Z,4.26
2019-01-15T12:18:15.673Z,4.23
2019-01-15T12:19:15.944Z,4.24
2019-01-15T12:20:16.218Z,4.26
2019-01-15T12:21:16.252Z,4.26
2019-01-15T12:22:16.515Z,4.26
2019-01-15T12:23:15.783Z,4.24
2019-01-15T12:24:16.049Z,4.24
2019-01-15T12:25:16.315Z,4.23
2019-01-15T12:26:15.575Z,4.26
2019-01-15T12:27:15.888Z,4.31
2019-01-15T12:28:16.149Z,4.28
2019-01-15T12:29:16.474Z,4.30
2019-01-15T12:30:15.766Z,4.27
2019-01-15T12:31:15.818Z,4.27
2019-01-15T12:32:16.083Z,4.27
2019-01-15T12:33:16.347Z,4.30
2019-01-15T12:34:15.620Z,4.27
2019-01-15T12:35:15.899Z,4.30
2019-01-15T12:36:16.179Z,4.30
2019-01-15T12:37:16.449Z,4.28
2019-01-15T12:38:15.703Z,4.26
2019-01-15T12:39:15.978Z,4.28
2019-01-15T12:40:17.043Z,4.28
2019-01-15T12:41:16.359Z,4.27
2019-01-15T12:42:15.621Z,4.27
2019-01-15T12:43:15.887Z,4.28
2019-01-15T12:44:16.156Z,4.26
2019-01-15T12:45:18.290Z,4.27
2019-01-15T12:46:15.825Z,4.27
2019-01-15T12:47:16.087Z,4.27
2019-01-15T12:48:16.357Z,4.24
2019-01-15T12:49:15.620Z,4.26
2019-01-15T12:50:15.893Z,4.26
2019-01-15T12:51:15.937Z,4.26
2019-01-15T12:52:16.197Z,4.30
2019-01-15T12:53:16.462Z,4.28
2019-01-15T12:54:15.725Z,4.33
2019-01-15T12:55:15.990Z,4.28
2019-01-15T12:56:16.260Z,4.36
2019-01-15T12:57:19.131Z,4.27
2019-01-15T12:58:15.743Z,4.31
2019-01-15T12:59:16.007Z,4.36
2019-01-15T13:00:16.271Z,4.34
2019-01-15T13:01:16.314Z,4.34
2019-01-15T13:02:15.571Z,4.37
2019-01-15T13:03:15.834Z,4.34
2019-01-15T13:04:16.094Z,4.33
2019-01-15T13:05:16.361Z,4.28
2019-01-15T13:06:15.627Z,4.31
2019-01-15T13:07:15.898Z,4.33
2019-01-15T13:08:16.160Z,4.34
2019-01-15T13:09:16.420Z,4.34
2019-01-15T13:10:15.700Z,4.36
2019-01-15T13:11:15.746Z,4.38
2019-01-15T13:12:16.019Z,4.37
2019-01-15T13:13:16.291Z,4.36
2019-01-15T13:14:15.555Z,4.43
2019-01-15T13:15:15.818Z,4.38
2019-01-15T13:16:16.083Z,4.44
2019-01-15T13:17:16.341Z,4.41
2019-01-15T13:18:15.611Z,4.40